createdAt,value
2022-10-25T00:00:47.392Z,1.70
2022-10-25T00:04:48.507Z,1.93
2022-10-25T00:08:50.300Z,1.83
2022-10-25T00:12:51.419Z,1.77
2022-10-25T00:16:52.602Z,1.13
2022-10-25T00:20:54.452Z,1.57
2022-10-25T00:24:55.601Z,2.20
2022-10-25T00:28:56.705Z,1.70
2022-10-25T00:32:58.083Z,2.00
2022-10-25T00:36:59.284Z,2.13
2022-10-25T00:41:01.077Z,1.60
2022-10-25T00:45:05.226Z,1.60
2022-10-25T00:49:15.893Z,1.90
2022-10-25T00:53:27.072Z,1.70
2022-10-25T00:57:32.106Z,1.47
2022-10-25T01:01:33.853Z,1.30
2022-10-25T01:05:35.777Z,1.77
2022-10-25T01:09:38.564Z,2.03
2022-10-25T01:13:39.862Z,1.63
2022-10-25T01:17:57.015Z,1.80
2022-10-25T01:22:19.046Z,2.13
2022-10-25T01:26:30.330Z,1.77
2022-10-25T01:30:52.450Z,1.90
2022-10-25T01:35:09.731Z,1.60
2022-10-25T01:39:20.321Z,1.73
2022-10-25T01:43:28.714Z,1.97
2022-10-25T01:47:39.252Z,1.63
2022-10-25T01:51:40.361Z,1.80
2022-10-25T01:55:45.350Z,1.90
2022-10-25T02:00:08.696Z,1.20
2022-10-25T02:04:22.404Z,1.30
2022-10-25T02:08:36.647Z,1.77
2022-10-25T02:12:41.591Z,1.77
2022-10-25T02:16:52.318Z,1.97
2022-10-25T02:20:55.117Z,2.20
2022-10-25T02:24:57.314Z,1.70
2022-10-25T02:29:00.236Z,1.20
2022-10-25T02:33:02.037Z,2.03
2022-10-25T02:37:03.349Z,2.43
2022-10-25T02:41:05.587Z,1.97
2022-10-25T02:45:07.646Z,2.20
2022-10-25T02:49:09.448Z,1.53
2022-10-25T02:53:10.588Z,1.97
2022-10-25T02:57:11.769Z,2.50
2022-10-25T03:01:14.703Z,2.50
2022-10-25T03:05:16.229Z,1.83
2022-10-25T03:09:17.323Z,2.20
2022-10-25T03:13:18.990Z,1.87
2022-10-25T03:17:20.188Z,1.70
2022-10-25T03:21:21.361Z,2.27
2022-10-25T03:25:22.658Z,2.00
2022-10-25T03:29:23.817Z,2.00
2022-10-25T03:33:26.099Z,2.33
2022-10-25T03:37:27.299Z,2.37
2022-10-25T03:41:28.486Z,2.23
2022-10-25T03:45:29.681Z,2.47
2022-10-25T03:49:30.802Z,2.23
2022-10-25T03:53:32.789Z,2.63
2022-10-25T03:57:33.912Z,2.47
2022-10-25T04:01:35.164Z,3.13
2022-10-25T04:05:36.761Z,2.17
2022-10-25T04:09:37.938Z,2.60
2022-10-25T04:13:39.063Z,2.27
2022-10-25T04:17:40.242Z,2.03
2022-10-25T04:21:41.653Z,2.30
2022-10-25T04:25:42.830Z,2.43
2022-10-25T04:29:43.938Z,2.27
2022-10-25T04:33:52.818Z,3.07
2022-10-25T04:37:56.514Z,2.30
2022-10-25T04:41:57.755Z,2.27
2022-10-25T04:46:00.727Z,2.40
2022-10-25T04:50:02.101Z,2.13
2022-10-25T04:54:03.298Z,2.60
2022-10-25T04:58:04.579Z,2.30
2022-10-25T05:02:05.701Z,3.33
2022-10-25T05:06:09.356Z,2.20
2022-10-25T05:10:10.594Z,2.80
2022-10-25T05:14:11.786Z,2.80
2022-10-25T05:18:12.886Z,3.03
2022-10-25T05:22:13.965Z,2.90
2022-10-25T05:26:18.363Z,2.97
2022-10-25T05:30:19.642Z,2.73
2022-10-25T05:34:20.847Z,2.83
2022-10-25T05:38:22.051Z,3.63
2022-10-25T05:42:23.287Z,3.00
2022-10-25T05:46:24.465Z,3.17
2022-10-25T05:50:25.554Z,2.90
2022-10-25T05:54:26.624Z,3.27
2022-10-25T05:58:27.713Z,2.87
2022-10-25T06:02:28.849Z,3.20
2022-10-25T06:06:30.208Z,3.50
2022-10-25T06:10:31.496Z,3.13
2022-10-25T06:14:32.691Z,3.10
2022-10-25T06:18:34.794Z,3.10
2022-10-25T06:22:35.984Z,3.27
2022-10-25T06:26:37.156Z,4.23
2022-10-25T06:30:38.238Z,3.50
2022-10-25T06:34:39.333Z,3.20
2022-10-25T06:38:41.003Z,3.00
2022-10-25T06:42:42.194Z,4.20
2022-10-25T06:47:15.312Z,3.53
2022-10-25T06:50:49.851Z,3.17
2022-10-25T06:54:49.545Z,3.23
2022-10-25T06:58:51.150Z,3.57
2022-10-25T07:02:56.681Z,3.57
2022-10-25T07:06:58.562Z,6.17
2022-10-25T07:10:59.981Z,3.27
2022-10-25T07:15:01.163Z,3.70
2022-10-25T07:19:03.780Z,3.83
2022-10-25T07:23:07.932Z,3.10
2022-10-25T07:27:07.950Z,3.30
2022-10-25T07:31:14.690Z,3.17
2022-10-25T07:35:15.869Z,2.93
2022-10-25T07:39:16.957Z,3.13
2022-10-25T07:43:18.040Z,3.60
2022-10-25T07:47:19.225Z,3.03
2022-10-25T07:51:20.493Z,3.50
2022-10-25T07:55:21.576Z,3.83
2022-10-25T07:59:22.774Z,3.17
2022-10-25T08:03:24.061Z,3.23
2022-10-25T08:07:25.588Z,3.40
2022-10-25T08:11:26.677Z,4.00
2022-10-25T08:15:27.859Z,4.00
2022-10-25T08:19:29.056Z,4.20
2022-10-25T08:23:31.953Z,3.53
2022-10-25T08:27:33.343Z,3.10
2022-10-25T08:31:35.646Z,3.40
2022-10-25T08:35:36.735Z,3.37
2022-10-25T08:39:38.034Z,3.23
2022-10-25T08:44:13.330Z,4.07
2022-10-25T08:48:18.321Z,3.70
2022-10-25T08:52:47.306Z,3.37
2022-10-25T08:57:10.575Z,4.40
2022-10-25T09:00:57.009Z,3.57
2022-10-25T09:04:58.584Z,2.80
2022-10-25T09:09:11.499Z,3.60
2022-10-25T09:13:28.504Z,3.50
2022-10-25T09:17:42.563Z,3.90
2022-10-25T09:22:02.274Z,3.10
2022-10-25T09:26:09.921Z,3.60
2022-10-25T09:30:12.527Z,3.03
2022-10-25T09:34:16.229Z,3.93
2022-10-25T09:38:36.638Z,3.40
2022-10-25T09:42:41.662Z,3.37
2022-10-25T09:47:14.310Z,3.33
2022-10-25T09:51:34.169Z,2.57
2022-10-25T09:55:56.767Z,2.70
2022-10-25T09:59:58.036Z,3.20
2022-10-25T10:04:05.918Z,3.20
2022-10-25T10:08:08.801Z,3.50
2022-10-25T10:12:25.792Z,3.60
2022-10-25T10:16:32.572Z,2.90
2022-10-25T10:20:33.952Z,3.37
2022-10-25T10:24:37.937Z,3.10
2022-10-25T10:28:42.868Z,4.23
2022-10-25T10:32:44.227Z,2.50
2022-10-25T10:36:45.336Z,2.70
2022-10-25T10:40:50.753Z,2.53
2022-10-25T10:45:11.651Z,2.90
2022-10-25T10:49:14.237Z,2.77
2022-10-25T10:53:28.489Z,3.03
2022-10-25T10:57:33.404Z,3.80
2022-10-25T11:01:34.812Z,2.43
2022-10-25T11:05:37.271Z,2.20
2022-10-25T11:09:38.379Z,2.40
2022-10-25T11:13:40.562Z,1.70
2022-10-25T11:17:48.343Z,1.83
2022-10-25T11:22:20.430Z,2.60
2022-10-25T11:26:48.473Z,2.50
2022-10-25T11:30:59.489Z,1.70
2022-10-25T11:35:33.774Z,1.97
2022-10-25T11:39:54.235Z,2.03
2022-10-25T11:44:23.780Z,1.93
2022-10-25T11:48:37.389Z,1.40
2022-10-25T11:52:56.775Z,1.70
2022-10-25T11:57:04.523Z,2.17
2022-10-25T12:01:32.554Z,2.20
2022-10-25T12:06:09.262Z,3.27
2022-10-25T12:10:34.188Z,2.70
2022-10-25T12:14:39.231Z,2.37
2022-10-25T12:18:44.140Z,2.33
2022-10-25T12:22:48.261Z,2.20
2022-10-25T12:26:52.819Z,2.43
2022-10-25T12:31:03.449Z,2.60
2022-10-25T12:35:09.855Z,1.93
2022-10-25T12:39:26.715Z,2.80
2022-10-25T12:43:37.522Z,2.60
2022-10-25T12:48:09.464Z,2.30
2022-10-25T12:52:17.497Z,2.63
2022-10-25T12:56:37.756Z,1.90
2022-10-25T13:01:06.692Z,2.73
2022-10-25T13:05:31.703Z,2.00
2022-10-25T13:09:35.402Z,1.90
2022-10-25T13:13:40.706Z,2.10
2022-10-25T13:17:46.428Z,2.30
2022-10-25T13:21:57.452Z,2.60
2022-10-25T13:26:02.430Z,2.13
2022-10-25T13:30:15.264Z,2.00
2022-10-25T13:34:23.062Z,2.33
2022-10-25T13:38:27.957Z,4.13
2022-10-25T13:42:32.945Z,2.10
2022-10-25T13:46:40.343Z,2.37
2022-10-25T13:50:44.947Z,1.90
2022-10-25T13:54:49.930Z,2.90
2022-10-25T13:58:54.216Z,2.97
2022-10-25T14:03:03.302Z,2.40
2022-10-25T14:07:42.934Z,3.20
2022-10-25T14:11:51.531Z,2.87
2022-10-25T14:15:55.030Z,2.30
2022-10-25T14:19:59.682Z,2.50
2022-10-25T14:24:04.652Z,2.33
2022-10-25T14:28:15.724Z,2.13
2022-10-25T14:32:20.600Z,1.93
2022-10-25T14:36:28.324Z,1.60
2022-10-25T14:40:30.827Z,1.83
2022-10-25T14:44:47.263Z,1.80
2022-10-25T14:48:51.037Z,2.07
2022-10-25T14:52:52.540Z,2.13
2022-10-25T14:57:00.514Z,1.67
2022-10-25T15:01:04.162Z,1.53
2022-10-25T15:05:06.969Z,1.57
2022-10-25T15:09:41.392Z,1.80
2022-10-25T15:13:34.004Z,1.23
2022-10-25T15:17:35.607Z,1.27
2022-10-25T15:21:49.150Z,1.57
2022-10-25T15:25:50.231Z,1.63
2022-10-25T15:29:51.803Z,1.13
2022-10-25T15:34:04.788Z,1.60
2022-10-25T15:38:09.385Z,1.90
2022-10-25T15:42:12.974Z,1.47
2022-10-25T15:46:17.379Z,1.90
2022-10-25T15:50:20.422Z,2.23
2022-10-25T15:54:23.286Z,2.10
2022-10-25T15:58:24.603Z,1.93
2022-10-25T16:02:27.677Z,1.90
2022-10-25T16:06:28.855Z,1.33
2022-10-25T16:10:31.341Z,1.57
2022-10-25T16:14:33.531Z,1.70
2022-10-25T16:18:34.649Z,1.20
2022-10-25T16:22:35.842Z,1.80
2022-10-25T16:26:42.287Z,1.70
2022-10-25T16:30:44.917Z,1.70
2022-10-25T16:34:46.177Z,4.77
2022-10-25T16:38:47.714Z,1.50
2022-10-25T16:42:49.074Z,1.63
2022-10-25T16:46:50.611Z,1.67
2022-10-25T16:50:51.866Z,2.70
2022-10-25T16:54:53.063Z,1.77
2022-10-25T16:58:54.560Z,1.63
2022-10-25T17:02:55.724Z,2.00
2022-10-25T17:06:56.833Z,1.97
2022-10-25T17:10:58.011Z,1.90
2022-10-25T17:14:59.128Z,1.90
2022-10-25T17:19:02.507Z,2.17
2022-10-25T17:23:03.763Z,1.83
2022-10-25T17:27:06.475Z,2.90
2022-10-25T17:31:09.938Z,2.30
2022-10-25T17:35:11.190Z,2.10
2022-10-25T17:39:12.476Z,20.10
2022-10-25T17:43:15.183Z,5.13
2022-10-25T17:47:16.375Z,2.03
2022-10-25T17:51:17.586Z,2.97
2022-10-25T17:55:19.343Z,7.33
2022-10-25T17:59:20.635Z,6.10
2022-10-25T18:03:21.826Z,4.63
2022-10-25T18:07:23.164Z,2.10
2022-10-25T18:11:26.360Z,1.77
2022-10-25T18:15:28.564Z,2.00
2022-10-25T18:19:29.686Z,2.00
2022-10-25T18:23:31.282Z,3.10
2022-10-25T18:27:32.571Z,2.07
2022-10-25T18:31:33.756Z,2.23
2022-10-25T18:35:34.999Z,2.50
2022-10-25T18:39:36.159Z,2.53
2022-10-25T18:43:37.455Z,4.70
2022-10-25T18:47:40.143Z,5.23
2022-10-25T18:51:41.380Z,5.33
2022-10-25T18:55:46.991Z,4.03
2022-10-25T18:59:48.099Z,4.13
2022-10-25T19:03:50.495Z,4.50
2022-10-25T19:07:51.571Z,4.20
2022-10-25T19:11:52.992Z,4.80
2022-10-25T19:15:56.863Z,4.87
2022-10-25T19:19:58.060Z,4.57
2022-10-25T19:23:59.255Z,5.63
2022-10-25T19:28:00.457Z,5.00
2022-10-25T19:32:01.765Z,4.80
2022-10-25T19:36:09.375Z,5.13
2022-10-25T19:40:11.436Z,5.53
2022-10-25T19:44:12.528Z,7.50
2022-10-25T19:48:13.597Z,7.30
2022-10-25T19:52:14.731Z,8.73
2022-10-25T19:56:18.917Z,6.60
2022-10-25T20:00:20.236Z,7.03
2022-10-25T20:04:21.452Z,6.70
2022-10-25T20:08:22.717Z,5.73
2022-10-25T20:12:24.386Z,5.07
2022-10-25T20:16:26.583Z,6.87
2022-10-25T20:20:27.761Z,6.70
2022-10-25T20:24:29.760Z,7.13
2022-10-25T20:28:32.439Z,7.27
2022-10-25T20:32:33.516Z,6.23
2022-10-25T20:36:35.106Z,8.23
2022-10-25T20:40:36.509Z,7.63
2022-10-25T20:44:37.585Z,5.93
2022-10-25T20:48:38.691Z,5.90
2022-10-25T20:52:47.914Z,6.30
2022-10-25T20:56:42.876Z,5.53
2022-10-25T21:00:45.124Z,5.97
2022-10-25T21:04:54.093Z,5.83
2022-10-25T21:08:49.708Z,7.10
2022-10-25T21:12:50.983Z,7.77
2022-10-25T21:16:52.054Z,7.80
2022-10-25T21:20:53.347Z,8.57
2022-10-25T21:24:54.426Z,8.77
2022-10-25T21:28:55.499Z,8.63
2022-10-25T21:32:56.585Z,8.00
2022-10-25T21:36:57.771Z,7.70
2022-10-25T21:41:11.405Z,9.00
2022-10-25T21:45:12.478Z,8.23
2022-10-25T21:49:13.777Z,8.13
2022-10-25T21:53:15.032Z,8.00
2022-10-25T21:57:16.203Z,8.03
2022-10-25T22:01:20.227Z,7.80
2022-10-25T22:05:21.492Z,8.00
2022-10-25T22:09:22.695Z,8.63
2022-10-25T22:13:24.073Z,8.30
2022-10-25T22:17:25.175Z,8.00
2022-10-25T22:21:28.376Z,8.20
2022-10-25T22:25:29.498Z,8.53
2022-10-25T22:29:30.706Z,8.47
2022-10-25T22:33:32.488Z,9.50
2022-10-25T22:37:33.686Z,8.60
2022-10-25T22:41:34.966Z,8.73
2022-10-25T22:45:36.155Z,8.00
2022-10-25T22:49:37.247Z,8.83
2022-10-25T22:53:39.425Z,9.33
2022-10-25T22:57:40.526Z,9.40
2022-10-25T23:01:41.716Z,9.40
2022-10-25T23:05:42.894Z,8.73
2022-10-25T23:09:43.977Z,7.80
2022-10-25T23:13:45.499Z,8.57
2022-10-25T23:21:47.673Z,8.83
2022-10-25T23:25:49.163Z,9.17
2022-10-25T23:29:50.339Z,8.20
2022-10-25T23:33:53.343Z,9.50
2022-10-25T23:37:54.723Z,7.30
2022-10-25T23:41:56.633Z,7.23
2022-10-25T23:45:58.106Z,6.63
2022-10-25T23:49:59.401Z,8.27
2022-10-25T23:54:00.685Z,8.07
2022-10-25T23:58:01.763Z,7.10
